createdAt,value
2018-08-06T00:01:30.860Z,12.60
2018-08-06T00:04:00.535Z,12.50
2018-08-06T00:06:29.830Z,12.50
2018-08-06T00:08:59.238Z,12.40
2018-08-06T00:11:28.981Z,12.40
2018-08-06T00:13:58.585Z,12.30
2018-08-06T00:16:28.306Z,12.30
2018-08-06T00:18:57.869Z,12.30
2018-08-06T00:21:27.453Z,12.20
2018-08-06T00:23:56.953Z,12.20
2018-08-06T00:26:26.308Z,12.20
2018-08-06T00:28:55.630Z,12.20
2018-08-06T00:31:25.227Z,12.20
2018-08-06T00:33:55.069Z,12.10
2018-08-06T00:36:24.646Z,12.00
2018-08-06T00:38:54.184Z,12.00
2018-08-06T00:41:23.597Z,12.00
2018-08-06T00:44:04.003Z,12.00
2018-08-06T00:49:26.236Z,11.90
2018-08-06T00:51:55.618Z,11.80
2018-08-06T00:54:25.054Z,11.80
2018-08-06T00:56:54.480Z,11.80
2018-08-06T00:59:23.626Z,11.80
2018-08-06T01:01:53.708Z,11.80
2018-08-06T01:04:23.675Z,11.70
2018-08-06T01:06:53.349Z,11.70
2018-08-06T01:09:23.121Z,11.70
2018-08-06T01:11:52.680Z,11.60
2018-08-06T01:14:22.028Z,11.60
2018-08-06T01:16:51.487Z,11.60
2018-08-06T01:19:20.838Z,11.60
2018-08-06T01:21:50.333Z,11.60
2018-08-06T01:24:20.272Z,11.50
2018-08-06T01:26:49.427Z,11.50
2018-08-06T01:29:18.891Z,11.50
2018-08-06T01:31:48.019Z,11.50
2018-08-06T01:37:14.711Z,11.40
2018-08-06T01:39:43.997Z,11.40
2018-08-06T01:42:13.530Z,11.30
2018-08-06T01:44:43.065Z,11.30
2018-08-06T01:47:12.309Z,11.30
2018-08-06T01:49:41.791Z,11.30
2018-08-06T01:52:11.564Z,11.20
2018-08-06T01:54:40.885Z,11.20
2018-08-06T01:57:10.736Z,11.20
2018-08-06T01:59:40.228Z,11.10
2018-08-06T02:02:09.798Z,11.10
2018-08-06T02:04:39.046Z,11.00
2018-08-06T02:07:08.976Z,11.00
2018-08-06T02:09:38.455Z,10.90
2018-08-06T02:12:08.834Z,10.90
2018-08-06T02:14:37.245Z,10.90
2018-08-06T02:17:05.780Z,10.90
2018-08-06T02:19:34.471Z,10.90
2018-08-06T02:22:03.403Z,10.90
2018-08-06T02:24:31.850Z,10.90
2018-08-06T02:27:00.375Z,10.80
2018-08-06T02:29:29.263Z,10.80
2018-08-06T02:34:43.264Z,10.80
2018-08-06T02:37:11.737Z,10.80
2018-08-06T02:39:40.435Z,10.80
2018-08-06T02:42:09.229Z,10.80
2018-08-06T02:44:37.687Z,10.70
2018-08-06T02:47:06.369Z,10.70
2018-08-06T02:49:35.205Z,10.70
2018-08-06T02:52:03.741Z,10.70
2018-08-06T02:54:32.394Z,10.70
2018-08-06T02:57:01.008Z,10.70
2018-08-06T02:59:30.134Z,10.70
2018-08-06T03:01:58.699Z,10.70
2018-08-06T03:04:27.159Z,10.60
2018-08-06T03:06:55.953Z,10.60
2018-08-06T03:09:29.655Z,10.60
2018-08-06T03:11:58.220Z,10.60
2018-08-06T03:14:26.880Z,10.50
2018-08-06T03:16:56.154Z,10.50
2018-08-06T03:19:25.286Z,10.50
2018-08-06T03:21:53.824Z,10.50
2018-08-06T03:24:22.397Z,10.40
2018-08-06T03:26:50.941Z,10.40
2018-08-06T03:29:19.757Z,10.30
2018-08-06T03:31:48.527Z,10.30
2018-08-06T03:34:17.349Z,10.20
2018-08-06T03:36:46.148Z,10.20
2018-08-06T03:39:14.992Z,10.20
2018-08-06T03:41:43.710Z,10.20
2018-08-06T03:44:12.840Z,10.20
2018-08-06T03:46:41.594Z,10.20
2018-08-06T03:49:10.340Z,10.20
2018-08-06T03:51:39.781Z,10.20
2018-08-06T03:54:08.413Z,10.10
2018-08-06T03:56:37.295Z,10.20
2018-08-06T03:59:06.025Z,10.20
2018-08-06T04:01:34.765Z,10.20
2018-08-06T04:04:03.266Z,10.20
2018-08-06T04:06:31.924Z,10.20
2018-08-06T04:09:00.782Z,10.30
2018-08-06T04:11:33.998Z,10.30
2018-08-06T04:14:02.787Z,10.40
2018-08-06T04:16:41.219Z,10.40
2018-08-06T04:19:11.175Z,10.50
2018-08-06T04:21:40.463Z,10.50
2018-08-06T04:24:09.670Z,10.60
2018-08-06T04:26:38.958Z,10.70
2018-08-06T04:29:07.917Z,10.80
2018-08-06T04:31:37.428Z,10.90
2018-08-06T04:34:06.269Z,11.00
2018-08-06T04:36:34.885Z,11.10
2018-08-06T04:39:03.709Z,11.20
2018-08-06T04:41:32.174Z,11.30
2018-08-06T04:44:00.999Z,11.50
2018-08-06T04:46:30.001Z,11.60
2018-08-06T04:48:58.826Z,11.80
2018-08-06T04:51:27.691Z,11.90
2018-08-06T04:53:56.712Z,12.10
2018-08-06T04:56:26.439Z,12.30
2018-08-06T04:58:55.551Z,12.50
2018-08-06T05:06:56.449Z,13.10
2018-08-06T05:09:25.824Z,13.20
2018-08-06T05:11:54.877Z,13.40
2018-08-06T05:14:23.668Z,13.60
2018-08-06T05:16:52.611Z,13.70
2018-08-06T05:19:22.408Z,13.90
2018-08-06T05:21:51.069Z,14.10
2018-08-06T05:24:19.403Z,14.20
2018-08-06T05:26:48.133Z,14.40
2018-08-06T05:29:16.901Z,14.50
2018-08-06T05:31:46.630Z,14.70
2018-08-06T05:34:16.244Z,14.80
2018-08-06T05:36:44.716Z,15.00
2018-08-06T05:39:13.402Z,15.20
2018-08-06T05:41:42.382Z,15.30
2018-08-06T05:44:11.659Z,15.50
2018-08-06T05:46:40.381Z,15.60
2018-08-06T05:51:54.777Z,15.80
2018-08-06T05:54:23.741Z,15.90
2018-08-06T05:56:52.093Z,16.10
2018-08-06T05:59:20.734Z,16.20
2018-08-06T06:01:49.290Z,16.30
2018-08-06T06:04:18.260Z,16.40
2018-08-06T06:06:47.465Z,16.60
2018-08-06T06:09:16.609Z,16.70
2018-08-06T06:11:45.279Z,16.90
2018-08-06T06:14:13.826Z,17.00
2018-08-06T06:16:42.756Z,17.10
2018-08-06T06:19:12.091Z,17.20
2018-08-06T06:21:40.381Z,17.30
2018-08-06T06:24:10.695Z,17.50
2018-08-06T06:29:32.694Z,17.80
2018-08-06T06:32:02.329Z,18.00
2018-08-06T06:34:31.858Z,18.20
2018-08-06T06:37:00.467Z,18.40
2018-08-06T06:39:29.527Z,18.50
2018-08-06T06:44:45.099Z,18.80
2018-08-06T06:47:16.278Z,19.00
2018-08-06T06:49:45.075Z,19.10
2018-08-06T06:52:14.501Z,19.20
2018-08-06T07:02:43.160Z,19.90
2018-08-06T07:05:14.318Z,19.90
2018-08-06T07:07:43.324Z,20.00
2018-08-06T07:10:19.362Z,20.20
2018-08-06T07:12:48.726Z,20.40
2018-08-06T07:15:17.939Z,20.50
2018-08-06T07:20:31.847Z,20.80
2018-08-06T07:23:00.897Z,20.90
2018-08-06T07:25:29.643Z,21.00
2018-08-06T07:27:58.207Z,21.20
2018-08-06T07:30:27.716Z,21.30
2018-08-06T07:32:56.488Z,21.50
2018-08-06T07:40:56.658Z,21.90
2018-08-06T07:43:25.287Z,22.00
2018-08-06T07:45:54.160Z,22.00
2018-08-06T07:48:24.133Z,22.10
2018-08-06T07:50:53.290Z,22.20
2018-08-06T07:53:22.448Z,22.30
2018-08-06T07:55:51.102Z,22.40
2018-08-06T08:03:16.846Z,22.70
2018-08-06T08:05:45.361Z,22.70
2018-08-06T08:15:46.169Z,23.30
2018-08-06T08:18:15.075Z,23.20
2018-08-06T08:23:29.024Z,23.40
2018-08-06T08:25:57.509Z,23.40
2018-08-06T08:28:25.814Z,23.50
2018-08-06T08:36:25.701Z,23.60
2018-08-06T08:41:34.895Z,23.90
2018-08-06T08:44:04.530Z,24.00
2018-08-06T08:46:33.509Z,24.10
2018-08-06T08:51:54.419Z,24.30
2018-08-06T08:54:23.227Z,24.40
2018-08-06T08:56:51.704Z,24.50
2018-08-06T08:59:20.322Z,24.50
2018-08-06T09:01:48.661Z,24.60
2018-08-06T09:04:17.422Z,24.60
2018-08-06T09:06:45.611Z,24.70
2018-08-06T09:09:14.829Z,24.80
2018-08-06T09:11:42.997Z,24.80
2018-08-06T09:14:11.101Z,24.80
2018-08-06T09:16:39.193Z,24.80
2018-08-06T09:19:07.329Z,24.90
2018-08-06T09:21:35.609Z,25.00
2018-08-06T09:24:04.236Z,25.10
2018-08-06T09:26:32.668Z,25.30
2018-08-06T09:29:00.834Z,25.50
2018-08-06T09:33:59.238Z,25.80
2018-08-06T09:36:28.411Z,25.70
2018-08-06T09:38:58.998Z,25.70
2018-08-06T09:41:28.135Z,25.80
2018-08-06T09:43:57.199Z,25.80
2018-08-06T09:46:26.193Z,25.90
2018-08-06T09:48:55.394Z,26.00
2018-08-06T09:51:24.488Z,26.00
2018-08-06T09:53:53.616Z,26.10
2018-08-06T09:56:22.356Z,26.20
2018-08-06T09:58:51.529Z,26.20
2018-08-06T10:01:25.749Z,26.40
2018-08-06T10:03:54.659Z,26.60
2018-08-06T10:06:24.119Z,26.70
2018-08-06T10:08:52.865Z,26.70
2018-08-06T10:11:21.687Z,26.80
2018-08-06T10:13:50.266Z,26.90
2018-08-06T10:16:18.844Z,26.90
2018-08-06T10:18:48.022Z,26.90
2018-08-06T10:21:16.965Z,27.00
2018-08-06T10:23:45.549Z,27.10
2018-08-06T10:26:14.637Z,27.10
2018-08-06T10:28:43.630Z,27.10
2018-08-06T10:31:12.709Z,27.20
2018-08-06T10:33:43.293Z,27.20
2018-08-06T10:36:12.534Z,27.20
2018-08-06T10:38:41.420Z,27.40
2018-08-06T10:41:11.421Z,27.50
2018-08-06T10:43:40.513Z,27.60
2018-08-06T10:46:09.428Z,27.70
2018-08-06T10:48:38.584Z,27.80
2018-08-06T10:51:07.703Z,28.00
2018-08-06T10:53:36.957Z,28.00
2018-08-06T10:56:05.974Z,28.10
2018-08-06T10:58:35.149Z,28.10
2018-08-06T11:01:05.857Z,28.30
2018-08-06T11:03:34.646Z,28.50
2018-08-06T11:06:03.587Z,28.50
2018-08-06T11:08:32.749Z,28.60
2018-08-06T11:11:01.639Z,28.60
2018-08-06T11:13:30.689Z,28.60
2018-08-06T11:15:59.779Z,28.70
2018-08-06T11:18:28.745Z,28.90
2018-08-06T11:20:57.621Z,29.00
2018-08-06T11:23:26.450Z,29.10
2018-08-06T11:28:23.849Z,29.10
2018-08-06T11:30:52.667Z,29.10
2018-08-06T11:33:21.585Z,29.20
2018-08-06T11:35:50.461Z,29.30
2018-08-06T11:38:19.575Z,29.40
2018-08-06T11:40:48.662Z,29.50
2018-08-06T11:43:17.530Z,29.50
2018-08-06T11:45:46.376Z,29.50
2018-08-06T11:48:15.214Z,29.40
2018-08-06T11:50:44.295Z,29.50
2018-08-06T11:53:13.217Z,29.60
2018-08-06T11:55:42.431Z,29.70
2018-08-06T11:58:11.494Z,29.80
2018-08-06T12:00:40.343Z,29.90
2018-08-06T12:03:09.190Z,30.00
2018-08-06T12:05:38.452Z,30.10
2018-08-06T12:08:07.443Z,30.10
2018-08-06T12:10:36.336Z,30.10
2018-08-06T12:13:05.129Z,30.20
2018-08-06T12:15:33.970Z,30.30
2018-08-06T12:18:02.755Z,30.20
2018-08-06T12:20:31.753Z,30.10
2018-08-06T12:23:00.639Z,30.00
2018-08-06T12:25:29.799Z,29.90
2018-08-06T12:27:58.836Z,30.00
2018-08-06T12:30:27.800Z,30.10
2018-08-06T12:32:56.564Z,30.10
2018-08-06T12:35:25.378Z,30.30
2018-08-06T12:37:54.221Z,30.40
2018-08-06T12:40:23.637Z,30.40
2018-08-06T12:42:52.555Z,30.40
2018-08-06T12:45:21.633Z,30.50
2018-08-06T12:47:50.609Z,30.50
2018-08-06T12:50:19.401Z,30.50
2018-08-06T12:52:48.437Z,30.60
2018-08-06T12:55:18.234Z,30.50
2018-08-06T12:57:47.115Z,30.40
2018-08-06T13:00:18.219Z,30.40
2018-08-06T13:02:47.503Z,30.40
2018-08-06T13:05:17.604Z,30.10
2018-08-06T13:07:47.082Z,30.00
2018-08-06T13:10:16.299Z,30.10
2018-08-06T13:12:45.340Z,30.20
2018-08-06T13:15:14.960Z,30.20
2018-08-06T13:17:43.807Z,30.20
2018-08-06T13:20:12.549Z,30.40
2018-08-06T13:22:41.249Z,30.60
2018-08-06T13:25:11.641Z,30.80
2018-08-06T13:27:40.356Z,30.80
2018-08-06T13:30:11.658Z,31.00
2018-08-06T13:32:40.636Z,31.10
2018-08-06T13:35:09.646Z,31.00
2018-08-06T13:37:38.656Z,30.90
2018-08-06T13:40:08.426Z,30.80
2018-08-06T13:42:37.271Z,30.80
2018-08-06T13:45:07.886Z,30.80
2018-08-06T13:47:36.559Z,30.90
2018-08-06T13:50:07.101Z,30.80
2018-08-06T13:52:36.446Z,30.80
2018-08-06T13:55:05.976Z,30.70
2018-08-06T13:57:35.338Z,30.70
2018-08-06T14:00:06.192Z,30.60
2018-08-06T14:02:35.172Z,30.60
2018-08-06T14:05:04.341Z,30.60
2018-08-06T14:07:33.827Z,30.60
2018-08-06T14:10:02.814Z,30.60
2018-08-06T14:12:32.064Z,30.60
2018-08-06T14:15:00.746Z,30.60
2018-08-06T14:17:29.473Z,30.60
2018-08-06T14:19:58.350Z,30.70
2018-08-06T14:22:27.514Z,30.70
2018-08-06T14:24:57.023Z,30.80
2018-08-06T14:27:26.285Z,30.60
2018-08-06T14:29:54.893Z,30.50
2018-08-06T14:32:23.569Z,30.40
2018-08-06T14:34:52.133Z,30.20
2018-08-06T14:37:20.648Z,30.10
2018-08-06T14:39:49.296Z,30.00
2018-08-06T14:42:18.028Z,30.00
2018-08-06T14:44:47.495Z,29.90
2018-08-06T14:47:16.139Z,29.80
2018-08-06T14:49:45.028Z,29.70
2018-08-06T14:52:13.677Z,29.70
2018-08-06T14:54:42.757Z,29.70
2018-08-06T14:57:12.643Z,29.60
2018-08-06T14:59:42.669Z,29.60
2018-08-06T15:02:12.979Z,29.50
2018-08-06T15:04:43.164Z,29.50
2018-08-06T15:07:12.218Z,29.40
2018-08-06T15:09:41.547Z,29.40
2018-08-06T15:12:10.935Z,29.30
2018-08-06T15:14:39.888Z,29.30
2018-08-06T15:17:09.296Z,29.30
2018-08-06T15:19:38.224Z,29.40
2018-08-06T15:22:07.155Z,29.60
2018-08-06T15:24:36.414Z,29.70
2018-08-06T15:27:06.024Z,29.70
2018-08-06T15:29:35.565Z,29.80
2018-08-06T15:32:04.691Z,29.90
2018-08-06T15:34:33.975Z,29.90
2018-08-06T15:37:02.976Z,29.90
2018-08-06T15:42:41.421Z,29.50
2018-08-06T15:45:12.176Z,29.30
2018-08-06T15:47:43.555Z,29.20
2018-08-06T15:50:19.524Z,29.10
2018-08-06T15:52:48.625Z,28.90
2018-08-06T15:55:18.031Z,28.70
2018-08-06T15:57:47.138Z,28.50
2018-08-06T16:00:18.427Z,28.30
2018-08-06T16:02:47.721Z,28.10
2018-08-06T16:05:16.798Z,27.90
2018-08-06T16:07:46.079Z,27.80
2018-08-06T16:10:15.691Z,27.60
2018-08-06T16:12:44.559Z,27.50
2018-08-06T16:15:14.753Z,27.40
2018-08-06T16:17:44.546Z,27.40
2018-08-06T16:22:43.774Z,27.30
2018-08-06T16:25:14.096Z,27.20
2018-08-06T16:27:43.159Z,27.20
2018-08-06T16:30:20.923Z,27.10
2018-08-06T16:32:50.183Z,27.00
2018-08-06T16:35:37.237Z,27.00
2018-08-06T16:38:07.713Z,26.90
2018-08-06T16:40:36.664Z,26.80
2018-08-06T16:43:05.652Z,26.70
2018-08-06T16:45:34.559Z,26.70
2018-08-06T16:48:03.618Z,26.60
2018-08-06T16:50:32.508Z,26.60
2018-08-06T16:53:01.395Z,26.50
2018-08-06T16:57:58.777Z,26.30
2018-08-06T17:00:27.536Z,26.30
2018-08-06T17:02:56.336Z,26.30
2018-08-06T17:05:25.774Z,26.20
2018-08-06T17:07:55.517Z,26.20
2018-08-06T17:10:24.568Z,26.10
2018-08-06T17:12:54.824Z,26.00
2018-08-06T17:15:23.823Z,25.90
2018-08-06T17:17:54.313Z,25.80
2018-08-06T17:20:24.017Z,25.80
2018-08-06T17:22:54.711Z,25.60
2018-08-06T17:25:23.552Z,25.60
2018-08-06T17:27:52.435Z,25.50
2018-08-06T17:30:21.413Z,25.50
2018-08-06T17:32:50.203Z,25.40
2018-08-06T17:35:18.909Z,25.30
2018-08-06T17:37:47.936Z,25.20
2018-08-06T17:40:18.671Z,25.00
2018-08-06T17:42:47.690Z,25.00
2018-08-06T17:45:23.043Z,24.80
2018-08-06T17:47:52.246Z,24.80
2018-08-06T17:50:22.330Z,24.70
2018-08-06T17:52:51.960Z,24.60
2018-08-06T17:55:21.859Z,24.50
2018-08-06T17:57:50.554Z,24.40
2018-08-06T18:00:19.987Z,24.20
2018-08-06T18:02:48.831Z,24.20
2018-08-06T18:05:18.157Z,24.00
2018-08-06T18:07:47.079Z,23.90
2018-08-06T18:10:16.981Z,23.80
2018-08-06T18:12:46.176Z,23.70
2018-08-06T18:15:15.109Z,23.50
2018-08-06T18:17:44.055Z,23.30
2018-08-06T18:20:15.078Z,23.10
2018-08-06T18:22:44.258Z,22.90
2018-08-06T18:25:15.077Z,22.80
2018-08-06T18:27:44.844Z,22.60
2018-08-06T18:30:16.900Z,22.40
2018-08-06T18:32:45.568Z,22.20
2018-08-06T18:35:15.828Z,22.00
2018-08-06T18:37:44.698Z,21.90
2018-08-06T18:40:14.588Z,21.70
2018-08-06T18:42:43.562Z,21.50
2018-08-06T18:45:17.069Z,21.30
2018-08-06T18:47:47.012Z,21.20
2018-08-06T18:50:16.844Z,21.00
2018-08-06T18:52:46.764Z,20.80
2018-08-06T18:55:16.193Z,20.60
2018-08-06T18:57:45.681Z,20.50
2018-08-06T19:00:19.821Z,20.30
2018-08-06T19:02:48.972Z,20.20
2018-08-06T19:05:17.960Z,20.10
2018-08-06T19:07:46.850Z,20.00
2018-08-06T19:10:15.719Z,19.90
2018-08-06T19:12:50.299Z,19.80
2018-08-06T19:15:19.292Z,19.80
2018-08-06T19:17:53.409Z,19.70
2018-08-06T19:20:22.352Z,19.70
2018-08-06T19:22:51.388Z,19.60
2018-08-06T19:25:26.123Z,19.50
2018-08-06T19:27:55.518Z,19.50
2018-08-06T19:30:29.180Z,19.40
2018-08-06T19:32:58.004Z,19.30
2018-08-06T19:35:26.755Z,19.30
2018-08-06T19:37:55.528Z,19.20
2018-08-06T19:40:23.510Z,19.10
2018-08-06T19:42:56.689Z,19.00
2018-08-06T19:45:24.566Z,18.90
2018-08-06T19:47:53.468Z,18.90
2018-08-06T19:50:27.390Z,18.80
2018-08-06T19:52:55.512Z,18.80
2018-08-06T19:55:29.206Z,18.70
2018-08-06T19:57:58.237Z,18.70
2018-08-06T20:00:28.166Z,18.60
2018-08-06T20:02:57.146Z,18.50
2018-08-06T20:05:26.700Z,18.50
2018-08-06T20:07:55.617Z,18.50
2018-08-06T20:17:11.342Z,18.40
2018-08-06T20:19:40.427Z,18.20
2018-08-06T20:22:15.883Z,18.20
2018-08-06T20:24:45.208Z,18.10
2018-08-06T20:27:13.995Z,18.00
2018-08-06T20:29:42.013Z,18.00
2018-08-06T20:32:10.007Z,17.90
2018-08-06T20:34:38.142Z,17.80
2018-08-06T20:37:07.433Z,17.70
2018-08-06T20:39:35.499Z,17.60
2018-08-06T20:42:04.597Z,17.60
2018-08-06T20:44:32.745Z,17.50
2018-08-06T20:47:01.975Z,17.50
2018-08-06T20:49:29.882Z,17.40
2018-08-06T20:51:58.217Z,17.30
2018-08-06T20:54:26.404Z,17.20
2018-08-06T20:56:54.321Z,17.20
2018-08-06T20:59:22.408Z,17.10
2018-08-06T21:01:50.233Z,17.00
2018-08-06T21:04:18.838Z,17.00
2018-08-06T21:06:47.031Z,16.90
2018-08-06T21:09:15.011Z,16.80
2018-08-06T21:11:42.914Z,16.80
2018-08-06T21:14:11.544Z,16.70
2018-08-06T21:16:39.482Z,16.70
2018-08-06T21:19:07.770Z,16.60
2018-08-06T21:21:35.626Z,16.50
2018-08-06T21:24:03.543Z,16.50
2018-08-06T21:28:59.752Z,16.40
2018-08-06T21:31:28.100Z,16.40
2018-08-06T21:33:56.642Z,16.40
2018-08-06T21:36:25.391Z,16.50
2018-08-06T21:38:53.916Z,16.50
2018-08-06T21:41:22.627Z,16.50
2018-08-06T21:43:50.943Z,16.60
2018-08-06T21:46:19.205Z,16.60
2018-08-06T21:48:47.849Z,16.70
2018-08-06T21:51:17.331Z,16.80
2018-08-06T21:53:46.627Z,16.80
2018-08-06T21:56:14.816Z,16.80
2018-08-06T21:58:43.426Z,16.90
2018-08-06T22:01:11.641Z,16.90
2018-08-06T22:03:40.621Z,16.90
2018-08-06T22:06:09.148Z,16.80
2018-08-06T22:08:39.297Z,16.80
2018-08-06T22:11:08.884Z,16.80
2018-08-06T22:13:37.704Z,16.70
2018-08-06T22:16:06.769Z,16.70
2018-08-06T22:18:35.957Z,16.70
2018-08-06T22:21:04.339Z,16.60
2018-08-06T22:23:32.845Z,16.60
2018-08-06T22:26:01.053Z,16.50
2018-08-06T22:28:29.583Z,16.50
2018-08-06T22:30:57.836Z,16.40
2018-08-06T22:33:26.224Z,16.40
2018-08-06T22:35:54.356Z,16.30
2018-08-06T22:38:23.566Z,16.30
2018-08-06T22:40:51.942Z,16.30
2018-08-06T22:43:20.400Z,16.20
2018-08-06T22:45:48.594Z,16.20
2018-08-06T22:48:17.012Z,16.20
2018-08-06T22:50:45.330Z,16.10
2018-08-06T22:53:14.407Z,16.10
2018-08-06T22:55:48.353Z,16.10
2018-08-06T22:58:16.475Z,16.10
2018-08-06T23:00:44.780Z,16.00
2018-08-06T23:03:13.054Z,16.10
2018-08-06T23:05:41.885Z,16.00
2018-08-06T23:08:09.940Z,16.10
2018-08-06T23:10:38.073Z,16.10
2018-08-06T23:13:06.294Z,16.10
2018-08-06T23:15:34.476Z,16.00
2018-08-06T23:18:03.597Z,16.00
2018-08-06T23:20:31.689Z,16.00
2018-08-06T23:23:00.989Z,16.00
2018-08-06T23:25:29.237Z,16.00
2018-08-06T23:27:57.820Z,16.00
2018-08-06T23:30:26.304Z,16.00
2018-08-06T23:32:54.976Z,16.00
2018-08-06T23:35:23.806Z,16.00
2018-08-06T23:37:52.375Z,16.00
2018-08-06T23:40:20.723Z,16.00
2018-08-06T23:42:48.957Z,16.00
2018-08-06T23:45:19.073Z,16.10
2018-08-06T23:47:48.278Z,16.10
2018-08-06T23:50:17.676Z,16.10
2018-08-06T23:52:47.086Z,16.10
2018-08-06T23:55:18.619Z,16.20
2018-08-06T23:57:47.634Z,16.20
